createdAt,value
2017-04-28T00:00:58.555Z,9.25
2017-04-28T00:02:12.705Z,9.24
2017-04-28T00:03:26.135Z,9.24
2017-04-28T00:04:39.571Z,9.24
2017-04-28T00:05:52.998Z,9.23
2017-04-28T00:07:06.470Z,9.2
2017-04-28T00:08:19.878Z,9.16
2017-04-28T00:09:33.569Z,9.13
2017-04-28T00:10:47.012Z,9.09
2017-04-28T00:12:00.776Z,9.05
2017-04-28T00:13:14.578Z,9.06
2017-04-28T00:14:28.318Z,9.08
2017-04-28T00:15:42.058Z,9.1
2017-04-28T00:16:55.502Z,9.12
2017-04-28T00:18:09.287Z,9.11
2017-04-28T00:19:22.851Z,9.11
2017-04-28T00:20:37.154Z,9.12
2017-04-28T00:21:50.690Z,9.11
2017-04-28T00:23:04.155Z,9.1
2017-04-28T00:24:17.580Z,9.09
2017-04-28T00:25:31.011Z,9.1
2017-04-28T00:26:44.406Z,9.11
2017-04-28T00:27:57.899Z,9.1
2017-04-28T00:29:11.892Z,9.08
2017-04-28T00:30:25.497Z,9.08
2017-04-28T00:31:39.138Z,9.09
2017-04-28T00:32:52.593Z,9.11
2017-04-28T00:34:06.397Z,9.12
2017-04-28T00:35:19.842Z,9.13
2017-04-28T00:36:33.399Z,9.15
2017-04-28T00:37:46.837Z,9.15
2017-04-28T00:39:00.373Z,9.16
2017-04-28T00:40:13.765Z,9.16
2017-04-28T00:41:27.310Z,9.13
2017-04-28T00:42:40.794Z,9.12
2017-04-28T00:43:54.248Z,9.12
2017-04-28T00:45:07.759Z,9.12
2017-04-28T00:46:21.490Z,9.14
2017-04-28T00:47:34.901Z,9.11
2017-04-28T00:48:48.621Z,9.1
2017-04-28T00:50:02.140Z,9.09
2017-04-28T00:51:15.547Z,9.05
2017-04-28T00:52:28.980Z,9.02
2017-04-28T00:53:42.385Z,9
2017-04-28T00:54:55.837Z,8.98
2017-04-28T00:56:09.241Z,8.96
2017-04-28T00:57:22.640Z,8.95
2017-04-28T00:58:36.035Z,8.95
2017-04-28T00:59:49.623Z,8.96
2017-04-28T01:01:03.059Z,8.95
2017-04-28T01:02:16.501Z,8.94
2017-04-28T01:03:29.901Z,8.9
2017-04-28T01:04:43.608Z,8.88
2017-04-28T01:05:57.176Z,8.87
2017-04-28T01:07:10.645Z,8.85
2017-04-28T01:08:24.249Z,8.85
2017-04-28T01:09:37.685Z,8.86
2017-04-28T01:10:51.798Z,8.86
2017-04-28T01:12:05.849Z,8.86
2017-04-28T01:13:19.667Z,8.83
2017-04-28T01:14:33.130Z,8.8
2017-04-28T01:15:46.635Z,8.79
2017-04-28T01:17:00.364Z,8.76
2017-04-28T01:18:14.629Z,8.74
2017-04-28T01:19:28.122Z,8.71
2017-04-28T01:20:41.893Z,8.72
2017-04-28T01:21:55.362Z,8.73
2017-04-28T01:23:08.829Z,8.73
2017-04-28T01:24:22.304Z,8.73
2017-04-28T01:25:35.933Z,8.72
2017-04-28T01:26:49.469Z,8.69
2017-04-28T01:28:02.934Z,8.69
2017-04-28T01:29:16.655Z,8.7
2017-04-28T01:30:30.463Z,8.69
2017-04-28T01:31:43.980Z,8.68
2017-04-28T01:32:57.830Z,8.68
2017-04-28T01:34:11.592Z,8.7
2017-04-28T01:35:25.051Z,8.66
2017-04-28T01:36:38.478Z,8.66
2017-04-28T01:37:52.423Z,8.66
2017-04-28T01:39:06.627Z,8.66
2017-04-28T01:40:20.042Z,8.66
2017-04-28T01:41:33.420Z,8.65
2017-04-28T01:42:46.841Z,8.65
2017-04-28T01:44:00.253Z,8.65
2017-04-28T01:45:13.647Z,8.65
2017-04-28T01:46:27.036Z,8.66
2017-04-28T01:47:40.821Z,8.67
2017-04-28T01:48:54.253Z,8.68
2017-04-28T01:50:07.668Z,8.68
2017-04-28T01:51:21.388Z,8.67
2017-04-28T01:52:34.987Z,8.66
2017-04-28T01:53:48.774Z,8.65
2017-04-28T01:55:02.247Z,8.63
2017-04-28T01:56:15.665Z,8.61
2017-04-28T01:57:29.066Z,8.61
2017-04-28T01:58:42.533Z,8.62
2017-04-28T01:59:56.425Z,8.62
2017-04-28T02:01:09.868Z,8.6
2017-04-28T02:02:23.292Z,8.6
2017-04-28T02:03:37.069Z,8.61
2017-04-28T02:04:50.519Z,8.62
2017-04-28T02:06:04.236Z,8.61
2017-04-28T02:07:17.650Z,8.61
2017-04-28T02:08:31.030Z,8.6
2017-04-28T02:09:44.502Z,8.61
2017-04-28T02:10:57.926Z,8.59
2017-04-28T02:12:11.667Z,8.58
2017-04-28T02:13:25.224Z,8.58
2017-04-28T02:14:38.715Z,8.61
2017-04-28T02:15:52.458Z,8.65
2017-04-28T02:17:05.920Z,8.66
2017-04-28T02:18:25.580Z,8.67
2017-04-28T02:19:39.399Z,8.68
2017-04-28T02:20:52.819Z,8.69
2017-04-28T02:22:06.278Z,8.68
2017-04-28T02:23:19.702Z,8.68
2017-04-28T02:24:33.265Z,8.67
2017-04-28T02:25:46.719Z,8.66
2017-04-28T02:27:00.711Z,8.65
2017-04-28T02:28:14.253Z,8.61
2017-04-28T02:29:27.875Z,8.59
2017-04-28T02:30:41.662Z,8.57
2017-04-28T02:31:55.119Z,8.56
2017-04-28T02:33:08.985Z,8.55
2017-04-28T02:34:23.942Z,8.53
2017-04-28T02:35:37.923Z,8.5
2017-04-28T02:36:51.773Z,8.47
2017-04-28T02:38:05.293Z,8.45
2017-04-28T02:39:19.053Z,8.46
2017-04-28T02:40:32.899Z,8.45
2017-04-28T02:41:46.356Z,8.44
2017-04-28T02:42:59.805Z,8.45
2017-04-28T02:44:13.583Z,8.47
2017-04-28T02:45:27.194Z,8.49
2017-04-28T02:46:40.781Z,8.5
2017-04-28T02:47:54.749Z,8.51
2017-04-28T02:49:08.637Z,8.5
2017-04-28T02:50:22.266Z,8.46
2017-04-28T02:51:36.030Z,8.43
2017-04-28T02:52:49.509Z,8.42
2017-04-28T02:54:03.058Z,8.42
2017-04-28T02:55:16.520Z,8.44
2017-04-28T02:56:29.978Z,8.44
2017-04-28T02:57:43.431Z,8.43
2017-04-28T02:58:56.872Z,8.42
2017-04-28T03:00:10.403Z,8.42
2017-04-28T03:01:23.857Z,8.4
2017-04-28T03:02:37.275Z,8.37
2017-04-28T03:03:51.033Z,8.33
2017-04-28T03:05:04.445Z,8.31
2017-04-28T03:06:18.465Z,8.31
2017-04-28T03:07:31.921Z,8.31
2017-04-28T03:08:45.461Z,8.3
2017-04-28T03:09:58.890Z,8.3
2017-04-28T03:11:12.301Z,8.31
2017-04-28T03:12:25.761Z,8.31
2017-04-28T03:13:39.270Z,8.32
2017-04-28T03:14:52.670Z,8.29
2017-04-28T03:16:06.473Z,8.28
2017-04-28T03:17:19.948Z,8.26
2017-04-28T03:18:33.644Z,8.27
2017-04-28T03:19:47.365Z,8.27
2017-04-28T03:21:01.276Z,8.26
2017-04-28T03:22:14.725Z,8.23
2017-04-28T03:23:28.256Z,8.2
2017-04-28T03:24:48.230Z,8.19
2017-04-28T03:26:01.666Z,8.2
2017-04-28T03:27:15.091Z,8.19
2017-04-28T03:28:28.557Z,8.17
2017-04-28T03:29:42.269Z,8.11
2017-04-28T03:30:55.659Z,8.06
2017-04-28T03:32:09.085Z,8.02
2017-04-28T03:33:22.543Z,7.99
2017-04-28T03:34:35.938Z,7.95
2017-04-28T03:35:49.335Z,7.93
2017-04-28T03:37:03.055Z,7.92
2017-04-28T03:38:16.493Z,7.94
2017-04-28T03:39:29.900Z,7.96
2017-04-28T03:40:43.824Z,7.98
2017-04-28T03:41:57.233Z,8
2017-04-28T03:43:10.856Z,8.02
2017-04-28T03:44:24.610Z,8.05
2017-04-28T03:45:38.369Z,8.05
2017-04-28T03:46:51.808Z,8.06
2017-04-28T03:48:05.270Z,8.06
2017-04-28T03:49:18.749Z,8.06
2017-04-28T03:50:32.530Z,8.06
2017-04-28T03:51:46.070Z,8.08
2017-04-28T03:52:59.470Z,8.07
2017-04-28T03:54:13.083Z,8.05
2017-04-28T03:55:26.791Z,8
2017-04-28T03:56:40.174Z,7.98
2017-04-28T03:57:53.611Z,7.96
2017-04-28T03:59:07.000Z,7.95
2017-04-28T04:00:20.599Z,7.93
2017-04-28T04:01:34.097Z,7.91
2017-04-28T04:02:47.482Z,7.89
2017-04-28T04:04:01.196Z,7.86
2017-04-28T04:05:14.632Z,7.86
2017-04-28T04:06:28.277Z,7.85
2017-04-28T04:07:41.725Z,7.84
2017-04-28T04:08:55.122Z,7.83
2017-04-28T04:10:08.650Z,7.84
2017-04-28T04:11:22.056Z,7.83
2017-04-28T04:12:35.472Z,7.83
2017-04-28T04:13:48.876Z,7.83
2017-04-28T04:15:02.258Z,7.86
2017-04-28T04:16:15.727Z,7.88
2017-04-28T04:17:29.165Z,7.89
2017-04-28T04:18:42.906Z,7.89
2017-04-28T04:19:56.341Z,7.9
2017-04-28T04:21:09.893Z,7.92
2017-04-28T04:22:23.612Z,7.94
2017-04-28T04:23:37.042Z,7.95
2017-04-28T04:24:50.461Z,8.02
2017-04-28T04:26:04.275Z,8.07
2017-04-28T04:27:17.794Z,8.13
2017-04-28T04:28:31.198Z,8.2
2017-04-28T04:29:44.591Z,8.27
2017-04-28T04:30:58.316Z,8.41
2017-04-28T04:32:11.802Z,8.52
2017-04-28T04:33:25.206Z,8.63
2017-04-28T04:34:38.664Z,8.71
2017-04-28T04:35:52.400Z,8.81
2017-04-28T04:37:05.882Z,8.92
2017-04-28T04:38:19.281Z,9.08
2017-04-28T04:39:32.746Z,9.32
2017-04-28T04:40:47.963Z,9.64
2017-04-28T04:42:01.451Z,9.85
2017-04-28T04:43:15.108Z,9.92
2017-04-28T04:44:28.557Z,9.91
2017-04-28T04:45:41.953Z,10.07
2017-04-28T04:46:55.405Z,10.49
2017-04-28T04:48:08.900Z,11.1
2017-04-28T04:49:22.381Z,11.58
2017-04-28T04:50:35.770Z,12.18
2017-04-28T04:51:49.200Z,12.58
2017-04-28T04:53:02.645Z,13.01
2017-04-28T04:54:16.191Z,13.41
2017-04-28T04:55:29.621Z,13.37
2017-04-28T04:56:43.018Z,13.09
2017-04-28T04:57:56.472Z,13.23
2017-04-28T04:59:09.896Z,13.45
2017-04-28T05:00:23.734Z,13.58
2017-04-28T05:01:37.444Z,13.51
2017-04-28T05:02:50.851Z,13.46
2017-04-28T05:04:04.303Z,13.16
2017-04-28T05:05:18.156Z,12.55
2017-04-28T05:06:31.741Z,12.14
2017-04-28T05:07:45.199Z,11.86
2017-04-28T05:08:58.692Z,11.65
2017-04-28T05:10:12.115Z,11.45
2017-04-28T05:11:25.819Z,11.25
2017-04-28T05:12:39.440Z,11.08
2017-04-28T05:13:53.032Z,10.98
2017-04-28T05:15:06.567Z,10.85
2017-04-28T05:16:21.032Z,10.75
2017-04-28T05:17:37.489Z,10.68
2017-04-28T05:18:50.942Z,10.59
2017-04-28T05:20:04.474Z,10.52
2017-04-28T05:21:17.899Z,10.45
2017-04-28T05:22:31.278Z,10.41
2017-04-28T05:23:44.925Z,10.4
2017-04-28T05:24:58.398Z,10.37
2017-04-28T05:26:11.792Z,10.35
2017-04-28T05:27:25.562Z,10.36
2017-04-28T05:28:39.282Z,10.36
2017-04-28T05:29:52.762Z,10.35
2017-04-28T05:31:06.756Z,10.35
2017-04-28T05:32:20.467Z,10.32
2017-04-28T05:33:34.020Z,10.31
2017-04-28T05:34:47.924Z,10.3
2017-04-28T05:36:01.680Z,10.31
2017-04-28T05:37:15.062Z,10.29
2017-04-28T05:38:28.951Z,10.29
2017-04-28T05:39:42.724Z,10.27
2017-04-28T05:40:56.212Z,10.27
2017-04-28T05:42:09.623Z,10.28
2017-04-28T05:43:23.055Z,10.29
2017-04-28T05:44:36.499Z,10.32
2017-04-28T05:45:50.005Z,10.33
2017-04-28T05:47:03.740Z,10.36
2017-04-28T05:48:17.165Z,10.38
2017-04-28T05:49:30.596Z,10.43
2017-04-28T05:50:44.035Z,10.48
2017-04-28T05:51:58.129Z,10.52
2017-04-28T05:53:11.598Z,10.54
2017-04-28T05:54:44.406Z,10.56
2017-04-28T05:55:57.836Z,10.6
2017-04-28T05:57:11.241Z,10.62
2017-04-28T05:58:25.111Z,10.64
2017-04-28T05:59:38.516Z,10.66
2017-04-28T06:00:51.939Z,10.7
2017-04-28T06:02:05.635Z,10.74
2017-04-28T06:03:19.090Z,10.79
2017-04-28T06:04:32.554Z,10.84
2017-04-28T06:05:46.236Z,10.87
2017-04-28T06:07:00.005Z,10.91
2017-04-28T06:08:13.479Z,10.93
2017-04-28T06:09:26.960Z,10.97
2017-04-28T06:10:40.719Z,11.04
2017-04-28T06:11:54.560Z,11.09
2017-04-28T06:13:07.982Z,11.11
2017-04-28T06:16:39.008Z,11.25
2017-04-28T06:17:53.198Z,11.32
2017-04-28T06:19:06.693Z,11.4
2017-04-28T06:20:20.432Z,11.48
2017-04-28T06:21:34.208Z,11.54
2017-04-28T06:22:47.624Z,11.58
2017-04-28T06:24:01.122Z,11.58
2017-04-28T06:25:16.030Z,11.59
2017-04-28T06:26:29.435Z,11.58
2017-04-28T06:27:43.462Z,11.59
2017-04-28T06:28:58.752Z,11.6
2017-04-28T06:30:13.040Z,11.64
2017-04-28T06:31:27.427Z,11.71
2017-04-28T06:32:41.792Z,11.74
2017-04-28T06:33:55.606Z,11.77
2017-04-28T06:35:09.260Z,11.78
2017-04-28T06:36:23.093Z,11.81
2017-04-28T06:37:36.965Z,11.8
2017-04-28T06:38:50.379Z,11.79
2017-04-28T06:40:03.860Z,11.77
2017-04-28T06:41:17.337Z,11.75
2017-04-28T06:42:30.747Z,11.76
2017-04-28T06:43:44.138Z,11.78
2017-04-28T06:44:57.962Z,11.81
2017-04-28T06:46:11.376Z,11.79
2017-04-28T06:47:25.092Z,11.78
2017-04-28T06:48:38.491Z,11.77
2017-04-28T06:49:52.013Z,11.74
2017-04-28T06:51:05.668Z,11.74
2017-04-28T06:52:19.380Z,11.74
2017-04-28T06:53:33.173Z,11.77
2017-04-28T06:54:46.610Z,11.83
2017-04-28T06:56:00.141Z,11.87
2017-04-28T06:57:13.799Z,11.94
2017-04-28T06:58:27.521Z,11.97
2017-04-28T06:59:40.972Z,12
2017-04-28T07:00:54.445Z,12.02
2017-04-28T07:02:07.862Z,12.04
2017-04-28T07:03:21.611Z,12.08
2017-04-28T07:04:35.319Z,12.09
2017-04-28T07:05:48.797Z,12.09
2017-04-28T07:07:02.499Z,12.12
2017-04-28T07:08:15.904Z,12.16
2017-04-28T07:09:29.293Z,12.19
2017-04-28T07:10:42.903Z,12.23
2017-04-28T07:11:56.411Z,12.26
2017-04-28T07:13:09.948Z,12.32
2017-04-28T07:14:23.407Z,12.36
2017-04-28T07:15:37.438Z,12.39
2017-04-28T07:16:51.015Z,12.37
2017-04-28T07:18:04.758Z,12.34
2017-04-28T07:19:18.199Z,12.35
2017-04-28T07:20:31.641Z,12.33
2017-04-28T07:21:45.121Z,12.32
2017-04-28T07:22:58.844Z,12.35
2017-04-28T07:24:12.283Z,12.39
2017-04-28T07:25:25.690Z,12.46
2017-04-28T07:26:39.454Z,12.53
2017-04-28T07:27:53.258Z,12.61
2017-04-28T07:29:06.674Z,12.63
2017-04-28T07:30:20.140Z,12.66
2017-04-28T07:31:33.552Z,12.63
2017-04-28T07:32:47.045Z,12.6
2017-04-28T07:34:00.607Z,12.55
2017-04-28T07:35:14.128Z,12.51
2017-04-28T07:36:27.712Z,12.53
2017-04-28T07:37:41.385Z,12.58
2017-04-28T07:38:54.849Z,12.6
2017-04-28T07:40:08.277Z,12.61
2017-04-28T07:41:21.818Z,12.6
2017-04-28T07:42:35.335Z,12.6
2017-04-28T07:43:48.975Z,12.55
2017-04-28T07:45:02.662Z,12.55
2017-04-28T07:46:16.168Z,12.54
2017-04-28T07:47:29.659Z,12.54
2017-04-28T07:48:43.271Z,12.53
2017-04-28T07:49:56.846Z,12.54
2017-04-28T07:51:10.713Z,12.6
2017-04-28T07:52:24.356Z,12.63
2017-04-28T07:53:37.967Z,12.68
2017-04-28T07:54:52.360Z,12.72
2017-04-28T07:56:06.581Z,12.75
2017-04-28T07:57:20.457Z,12.72
2017-04-28T07:58:33.939Z,12.68
2017-04-28T07:59:47.493Z,12.67
2017-04-28T08:01:01.692Z,12.66
2017-04-28T08:02:15.275Z,12.66
2017-04-28T08:03:28.761Z,12.64
2017-04-28T08:04:43.080Z,12.63
2017-04-28T08:05:56.679Z,12.61
2017-04-28T08:07:10.310Z,12.63
2017-04-28T08:08:23.936Z,12.67
2017-04-28T08:09:52.386Z,12.73
2017-04-28T08:11:06.172Z,12.79
2017-04-28T08:12:19.653Z,12.82
2017-04-28T08:13:33.383Z,12.86
2017-04-28T08:14:47.094Z,12.91
2017-04-28T08:16:01.096Z,12.91
2017-04-28T08:17:14.563Z,12.9
2017-04-28T08:18:28.664Z,12.92
2017-04-28T08:19:42.450Z,12.95
2017-04-28T08:20:56.273Z,13.01
2017-04-28T08:22:09.783Z,13.03
2017-04-28T08:23:23.206Z,13.07
2017-04-28T08:24:55.955Z,13.12
2017-04-28T08:26:09.437Z,13.2
2017-04-28T08:27:23.011Z,13.25
2017-04-28T08:28:36.457Z,13.29
2017-04-28T08:29:49.936Z,13.31
2017-04-28T08:31:03.758Z,13.34
2017-04-28T08:32:17.291Z,13.39
2017-04-28T08:33:30.826Z,13.44
2017-04-28T08:34:44.371Z,13.51
2017-04-28T08:35:57.870Z,13.59
2017-04-28T08:37:11.356Z,13.66
2017-04-28T08:38:24.918Z,13.72
2017-04-28T08:39:38.538Z,13.78
2017-04-28T08:40:52.703Z,13.85
2017-04-28T08:42:06.524Z,13.92
2017-04-28T08:43:20.003Z,13.98
2017-04-28T08:44:33.469Z,14.07
2017-04-28T08:45:46.971Z,14.14
2017-04-28T08:47:00.895Z,14.22
2017-04-28T08:48:14.959Z,14.25
2017-04-28T08:49:29.180Z,14.3
2017-04-28T08:50:42.882Z,14.32
2017-04-28T08:51:57.558Z,14.34
2017-04-28T08:53:11.934Z,14.37
2017-04-28T08:54:25.555Z,14.39
2017-04-28T08:55:39.053Z,14.4
2017-04-28T08:56:52.623Z,14.41
2017-04-28T08:58:06.649Z,14.41
2017-04-28T08:59:20.268Z,14.46
2017-04-28T09:00:34.110Z,14.54
2017-04-28T09:01:47.944Z,14.64
2017-04-28T09:03:02.282Z,14.75
2017-04-28T09:04:16.454Z,14.89
2017-04-28T09:05:31.100Z,15.04
2017-04-28T09:06:44.965Z,15.14
2017-04-28T09:07:58.570Z,15.23
2017-04-28T09:09:12.489Z,15.32
2017-04-28T09:10:25.995Z,15.4
2017-04-28T09:11:40.277Z,15.47
2017-04-28T09:12:53.891Z,15.55
2017-04-28T09:14:07.414Z,15.63
2017-04-28T09:15:20.902Z,15.74
2017-04-28T09:16:34.819Z,15.8
2017-04-28T09:17:48.897Z,15.85
2017-04-28T09:19:02.607Z,15.9
2017-04-28T09:20:16.150Z,15.93
2017-04-28T09:21:29.627Z,16.01
2017-04-28T09:22:43.502Z,16.12
2017-04-28T09:23:57.369Z,16.25
2017-04-28T09:25:11.127Z,16.39
2017-04-28T09:26:24.551Z,16.52
2017-04-28T09:27:38.041Z,16.63
2017-04-28T09:28:51.500Z,16.74
2017-04-28T09:30:05.798Z,16.8
2017-04-28T09:31:19.342Z,16.85
2017-04-28T09:32:32.768Z,16.91
2017-04-28T09:33:46.522Z,17.04
2017-04-28T09:35:00.115Z,17.13
2017-04-28T09:36:13.667Z,17.15
2017-04-28T09:37:27.520Z,17.09
2017-04-28T09:38:40.965Z,17.02
2017-04-28T09:39:54.559Z,16.95
2017-04-28T09:41:08.330Z,16.84
2017-04-28T09:42:21.901Z,16.71
2017-04-28T09:43:48.081Z,16.56
2017-04-28T09:45:02.269Z,16.48
2017-04-28T09:46:15.702Z,16.45
2017-04-28T09:47:29.101Z,16.43
2017-04-28T09:48:42.938Z,16.42
2017-04-28T09:49:56.369Z,16.39
2017-04-28T09:51:09.932Z,16.33
2017-04-28T09:52:23.393Z,16.31
2017-04-28T09:53:37.112Z,16.3
2017-04-28T09:54:50.527Z,16.29
2017-04-28T09:56:04.117Z,16.31
2017-04-28T09:57:18.489Z,16.35
2017-04-28T09:58:32.210Z,16.36
2017-04-28T09:59:45.950Z,16.37
2017-04-28T10:00:59.500Z,16.4
2017-04-28T10:02:12.929Z,16.46
2017-04-28T10:03:26.377Z,16.5
2017-04-28T10:04:40.218Z,16.53
2017-04-28T10:05:53.679Z,16.53
2017-04-28T10:07:07.656Z,16.53
2017-04-28T10:08:21.220Z,16.52
2017-04-28T10:09:34.666Z,16.5
2017-04-28T10:10:48.162Z,16.5
2017-04-28T10:12:01.736Z,16.44
2017-04-28T10:13:15.205Z,16.37
2017-04-28T10:14:28.711Z,16.32
2017-04-28T10:15:42.273Z,16.31
2017-04-28T10:16:55.717Z,16.35
2017-04-28T10:18:09.506Z,16.37
2017-04-28T10:19:22.925Z,16.37
2017-04-28T10:20:36.386Z,16.37
2017-04-28T10:21:49.799Z,16.43
2017-04-28T10:23:03.305Z,16.5
2017-04-28T10:24:16.756Z,16.59
2017-04-28T10:25:30.782Z,16.67
2017-04-28T10:26:44.235Z,16.76
2017-04-28T10:27:57.998Z,16.83
2017-04-28T10:29:11.501Z,16.9
2017-04-28T10:30:24.993Z,16.96
2017-04-28T10:31:38.470Z,16.97
2017-04-28T10:32:51.957Z,17
2017-04-28T10:34:05.754Z,17.09
2017-04-28T10:35:19.285Z,17.2
2017-04-28T10:36:33.042Z,17.34
2017-04-28T10:37:46.786Z,17.48
2017-04-28T10:39:01.872Z,17.61
2017-04-28T10:40:15.650Z,17.73
2017-04-28T10:41:29.248Z,17.74
2017-04-28T10:42:42.997Z,17.75
2017-04-28T10:44:00.603Z,17.77
2017-04-28T10:45:15.089Z,17.81
2017-04-28T10:46:29.191Z,17.83
2017-04-28T10:47:42.990Z,17.84
2017-04-28T10:48:56.476Z,17.86
2017-04-28T10:50:10.129Z,17.86
2017-04-28T10:51:23.881Z,17.86
2017-04-28T10:52:37.997Z,17.84
2017-04-28T10:53:51.520Z,17.81
2017-04-28T10:55:05.276Z,17.72
2017-04-28T10:56:18.869Z,17.58
2017-04-28T10:57:32.797Z,17.41
2017-04-28T10:58:46.246Z,17.26
2017-04-28T10:59:59.749Z,17.11
2017-04-28T11:01:19.765Z,16.95
2017-04-28T11:02:33.236Z,16.67
2017-04-28T11:03:46.737Z,16.38
2017-04-28T11:05:00.318Z,16.13
2017-04-28T11:06:13.865Z,15.93
2017-04-28T11:07:27.688Z,15.77
2017-04-28T11:08:41.629Z,15.68
2017-04-28T11:09:55.164Z,15.63
2017-04-28T11:11:09.007Z,15.58
2017-04-28T11:12:22.826Z,15.57
2017-04-28T11:13:36.461Z,15.55
2017-04-28T11:14:50.001Z,15.54
2017-04-28T11:16:03.793Z,15.53
2017-04-28T11:17:17.869Z,15.53
2017-04-28T11:18:31.900Z,15.51
2017-04-28T11:19:58.483Z,15.5
2017-04-28T11:21:12.151Z,15.53
2017-04-28T11:22:25.974Z,15.57
2017-04-28T11:24:30.689Z,15.63
2017-04-28T11:25:44.280Z,15.73
2017-04-28T11:26:57.740Z,15.79
2017-04-28T11:28:11.260Z,15.86
2017-04-28T11:29:25.021Z,15.95
2017-04-28T11:30:38.475Z,16.06
2017-04-28T11:31:51.971Z,16.13
2017-04-28T11:33:05.476Z,16.19
2017-04-28T11:34:19.138Z,16.25
2017-04-28T11:35:32.970Z,16.32
2017-04-28T11:36:46.819Z,16.38
2017-04-28T11:38:00.312Z,16.46
2017-04-28T11:39:13.818Z,16.53
2017-04-28T11:40:27.360Z,16.62
2017-04-28T11:41:41.216Z,16.66
2017-04-28T11:42:54.671Z,16.71
2017-04-28T11:44:08.870Z,16.75
2017-04-28T11:45:22.889Z,16.82
2017-04-28T11:46:36.411Z,16.91
2017-04-28T11:47:49.978Z,17.01
2017-04-28T11:49:03.516Z,17.02
2017-04-28T11:50:17.703Z,17.03
2017-04-28T11:51:31.270Z,17.05
2017-04-28T11:52:45.711Z,17.09
2017-04-28T11:53:59.549Z,17.12
2017-04-28T11:55:13.190Z,17.09
2017-04-28T11:56:27.758Z,17.05
2017-04-28T11:57:41.487Z,16.99
2017-04-28T11:58:55.174Z,16.92
2017-04-28T12:00:09.411Z,16.88
2017-04-28T12:01:23.096Z,16.89
2017-04-28T12:02:37.422Z,16.91
2017-04-28T12:03:51.939Z,16.91
2017-04-28T12:05:05.963Z,16.9
2017-04-28T12:06:19.426Z,16.89
2017-04-28T12:07:32.981Z,16.91
2017-04-28T12:08:46.898Z,16.95
2017-04-28T12:10:00.518Z,17.03
2017-04-28T12:11:14.386Z,17.11
2017-04-28T12:12:27.967Z,17.19
2017-04-28T12:13:42.015Z,17.26
2017-04-28T12:14:55.538Z,17.33
2017-04-28T12:16:08.978Z,17.4
2017-04-28T12:19:22.985Z,17.51
2017-04-28T12:20:36.466Z,17.48
2017-04-28T12:21:52.405Z,17.42
2017-04-28T12:23:06.042Z,17.34
2017-04-28T12:24:19.615Z,17.26
2017-04-28T12:25:33.244Z,17.21
2017-04-28T12:26:46.737Z,17.2
2017-04-28T12:28:00.216Z,17.2
2017-04-28T12:29:13.901Z,17.21
2017-04-28T12:30:27.706Z,17.23
2017-04-28T12:31:41.233Z,17.27
2017-04-28T12:32:54.831Z,17.32
2017-04-28T12:34:08.508Z,17.37
2017-04-28T12:35:22.001Z,17.39
2017-04-28T12:36:35.616Z,17.41
2017-04-28T12:37:49.216Z,17.43
2017-04-28T12:39:03.146Z,17.42
2017-04-28T12:40:17.001Z,17.34
2017-04-28T12:41:31.565Z,17.23
2017-04-28T12:42:45.389Z,17.13
2017-04-28T12:43:58.917Z,17.06
2017-04-28T12:45:12.913Z,16.98
2017-04-28T12:46:26.531Z,16.9
2017-04-28T12:47:40.012Z,16.86
2017-04-28T12:48:54.032Z,16.87
2017-04-28T12:50:07.897Z,16.9
2017-04-28T12:51:34.527Z,16.92
2017-04-28T12:52:48.404Z,16.9
2017-04-28T12:54:01.868Z,16.85
2017-04-28T12:55:15.842Z,16.81
2017-04-28T12:56:29.641Z,16.81
2017-04-28T12:57:43.117Z,16.83
2017-04-28T12:58:56.601Z,16.84
2017-04-28T13:00:10.205Z,16.84
2017-04-28T13:01:24.450Z,16.86
2017-04-28T13:02:38.391Z,16.9
2017-04-28T13:03:52.185Z,16.95
2017-04-28T13:05:05.697Z,17.01
2017-04-28T13:06:19.211Z,17.07
2017-04-28T13:07:32.745Z,17.14
2017-04-28T13:08:46.259Z,17.22
2017-04-28T13:10:00.155Z,17.28
2017-04-28T13:11:14.481Z,17.3
2017-04-28T13:12:27.945Z,17.33
2017-04-28T13:13:41.400Z,17.35
2017-04-28T13:14:54.936Z,17.36
2017-04-28T13:16:08.448Z,17.36
2017-04-28T13:17:21.916Z,17.36
2017-04-28T13:18:35.433Z,17.4
2017-04-28T13:19:49.243Z,17.39
2017-04-28T13:21:03.126Z,17.36
2017-04-28T13:22:17.034Z,17.31
2017-04-28T13:23:30.688Z,17.24
2017-04-28T13:24:44.152Z,17.16
2017-04-28T13:25:58.757Z,17.11
2017-04-28T13:27:12.223Z,17.06
2017-04-28T13:28:26.466Z,16.99
2017-04-28T13:29:40.265Z,16.91
2017-04-28T13:30:54.570Z,16.82
2017-04-28T13:32:08.039Z,16.72
2017-04-28T13:33:21.814Z,16.62
2017-04-28T13:34:35.388Z,16.56
2017-04-28T13:35:48.853Z,16.53
2017-04-28T13:37:02.339Z,16.5
2017-04-28T13:38:15.798Z,16.47
2017-04-28T13:39:29.264Z,16.46
2017-04-28T13:40:43.221Z,16.47
2017-04-28T13:41:56.816Z,16.49
2017-04-28T13:43:10.627Z,16.5
2017-04-28T13:44:24.129Z,16.45
2017-04-28T13:45:38.125Z,16.42
2017-04-28T13:46:51.612Z,16.42
2017-04-28T13:48:05.195Z,16.42
2017-04-28T13:49:18.986Z,16.4
2017-04-28T13:50:32.477Z,16.4
2017-04-28T13:51:46.262Z,16.43
2017-04-28T13:52:59.809Z,16.47
2017-04-28T13:54:13.586Z,16.52
2017-04-28T13:55:27.440Z,16.56
2017-04-28T13:56:40.884Z,16.6
2017-04-28T13:57:54.366Z,16.66
2017-04-28T13:59:07.877Z,16.74
2017-04-28T14:00:21.618Z,16.83
2017-04-28T14:01:35.057Z,16.92
2017-04-28T14:02:48.565Z,16.99
2017-04-28T14:04:02.050Z,17.04
2017-04-28T14:05:15.480Z,17.1
2017-04-28T14:06:29.447Z,17.14
2017-04-28T14:07:43.198Z,17.16
2017-04-28T14:08:56.703Z,17.24
2017-04-28T14:10:10.151Z,17.29
2017-04-28T14:11:23.628Z,17.35
2017-04-28T14:12:37.083Z,17.37
2017-04-28T14:13:51.305Z,17.35
2017-04-28T14:15:04.756Z,17.32
2017-04-28T14:16:18.481Z,17.25
2017-04-28T14:17:31.934Z,17.16
2017-04-28T14:18:45.672Z,17.08
2017-04-28T14:19:59.845Z,17.07
2017-04-28T14:21:14.151Z,17.1
2017-04-28T14:22:27.616Z,17.13
2017-04-28T14:23:41.644Z,17.16
2017-04-28T14:24:55.141Z,17.16
2017-04-28T14:26:08.890Z,17.14
2017-04-28T14:27:22.819Z,17.09
2017-04-28T14:28:37.225Z,17.03
2017-04-28T14:30:07.947Z,16.98
2017-04-28T14:31:24.035Z,16.92
2017-04-28T14:32:41.628Z,16.88
2017-04-28T14:34:00.573Z,16.82
2017-04-28T14:35:16.009Z,16.75
2017-04-28T14:36:29.768Z,16.72
2017-04-28T14:37:43.354Z,16.68
2017-04-28T14:38:56.814Z,16.64
2017-04-28T14:40:10.778Z,16.64
2017-04-28T14:41:24.317Z,16.63
2017-04-28T14:42:38.019Z,16.64
2017-04-28T14:43:51.511Z,16.64
2017-04-28T14:45:05.017Z,16.62
2017-04-28T14:46:18.501Z,16.57
2017-04-28T14:47:32.253Z,16.56
2017-04-28T14:48:46.295Z,16.53
2017-04-28T14:49:59.768Z,16.53
2017-04-28T14:51:13.336Z,16.52
2017-04-28T14:52:26.783Z,16.51
2017-04-28T14:53:40.255Z,16.53
2017-04-28T14:54:53.682Z,16.56
2017-04-28T14:56:07.258Z,16.6
2017-04-28T14:57:21.132Z,16.66
2017-04-28T14:58:34.608Z,16.72
2017-04-28T14:59:48.143Z,16.78
2017-04-28T15:01:02.159Z,16.8
2017-04-28T15:02:15.697Z,16.81
2017-04-28T15:03:29.739Z,16.83
2017-04-28T15:04:43.195Z,16.83
2017-04-28T15:08:42.603Z,16.85
2017-04-28T15:09:56.311Z,16.86
2017-04-28T15:11:10.183Z,16.85
2017-04-28T15:12:23.765Z,16.87
2017-04-28T15:13:37.303Z,16.87
2017-04-28T15:14:51.233Z,16.89
2017-04-28T15:16:04.868Z,16.93
2017-04-28T15:17:18.846Z,16.94
2017-04-28T15:18:32.866Z,16.96
2017-04-28T15:19:46.729Z,16.99
2017-04-28T15:21:00.265Z,17
2017-04-28T15:22:14.580Z,16.97
2017-04-28T15:23:28.322Z,16.89
2017-04-28T15:24:42.268Z,16.84
2017-04-28T15:25:55.817Z,16.78
2017-04-28T15:27:09.877Z,16.74
2017-04-28T15:28:23.649Z,16.75
2017-04-28T15:29:39.965Z,16.74
2017-04-28T15:30:57.222Z,16.75
2017-04-28T15:32:10.749Z,16.74
2017-04-28T15:33:24.511Z,16.73
2017-04-28T15:34:38.952Z,16.73
2017-04-28T15:35:52.719Z,16.72
2017-04-28T15:37:06.293Z,16.68
2017-04-28T15:38:20.535Z,16.68
2017-04-28T15:39:34.178Z,16.68
2017-04-28T15:40:47.854Z,16.64
2017-04-28T15:42:01.719Z,16.61
2017-04-28T15:43:15.914Z,16.6
2017-04-28T15:44:30.010Z,16.59
2017-04-28T15:45:43.918Z,16.54
2017-04-28T15:46:57.972Z,16.48
2017-04-28T15:48:11.921Z,16.45
2017-04-28T15:49:26.621Z,16.43
2017-04-28T15:50:41.770Z,16.44
2017-04-28T15:51:55.686Z,16.42
2017-04-28T15:53:09.457Z,16.42
2017-04-28T15:54:24.021Z,16.42
2017-04-28T15:55:38.228Z,16.41
2017-04-28T15:56:51.915Z,16.39
2017-04-28T15:58:06.649Z,16.36
2017-04-28T15:59:23.206Z,16.36
2017-04-28T16:00:38.011Z,16.36
2017-04-28T16:01:52.061Z,16.34
2017-04-28T16:03:06.371Z,16.29
2017-04-28T16:04:20.289Z,16.24
2017-04-28T16:05:34.069Z,16.18
2017-04-28T16:06:47.719Z,16.14
2017-04-28T16:08:01.936Z,16.12
2017-04-28T16:09:16.998Z,16.1
2017-04-28T16:10:30.740Z,16.06
2017-04-28T16:11:45.006Z,16.01
2017-04-28T16:12:58.704Z,15.94